Richfield, North Carolina
Current Conditions -  °F | °C
As of 8:15 PM on Tuesday 21 Oct 2014 (Local Time) from KVUJ Reporting Station
Broken Clouds Broken Clouds  
Wind Chill: 63°   Ceiling: 6500
Heat Index: 63°   Visibility: 10mi
Dew Point: 43°   Wind: 9mph
Humidity: 48%   Direction: 360°N
Pressure: 29.97"   Gusts: NA
Location:  35.47°N, 80.26°W
Report Text: KVUJ 220015Z AUTO 36008KT 10SM BKN065 17/06 A2997 RMK AO2 T01730061
Loading
Personal Weather Stations






























Interactive Weather Map
Tropical Storm Tracking
New forecast layout! Learn more

10-Day Weather Forecast

Advertisements
Track Severe Weather on mobile